sensor_id;sensor_type;location;lat;lon;timestamp;P1;durP1;ratioP1;P2;durP2;ratioP2
7029;SDS011;3556;53.500;10.176;2022-10-17T00:01:03;6.93;;;5.20;;
7029;SDS011;3556;53.500;10.176;2022-10-17T00:03:29;8.33;;;4.50;;
7029;SDS011;3556;53.500;10.176;2022-10-17T00:05:55;6.60;;;5.00;;
7029;SDS011;3556;53.500;10.176;2022-10-17T00:08:21;5.13;;;4.70;;
7029;SDS011;3556;53.500;10.176;2022-10-17T00:10:57;7.33;;;4.50;;
7029;SDS011;3556;53.500;10.176;2022-10-17T00:13:27;6.67;;;4.43;;
7029;SDS011;3556;53.500;10.176;2022-10-17T00:15:52;8.17;;;4.60;;
7029;SDS011;3556;53.500;10.176;2022-10-17T00:18:18;5.20;;;4.33;;
7029;SDS011;3556;53.500;10.176;2022-10-17T00:20:44;7.80;;;5.00;;
7029;SDS011;3556;53.500;10.176;2022-10-17T00:23:09;4.90;;;4.33;;
7029;SDS011;3556;53.500;10.176;2022-10-17T00:25:35;6.67;;;4.53;;
7029;SDS011;3556;53.500;10.176;2022-10-17T00:28:01;6.53;;;4.20;;
7029;SDS011;3556;53.500;10.176;2022-10-17T00:30:27;7.17;;;5.17;;
7029;SDS011;3556;53.500;10.176;2022-10-17T00:32:53;5.43;;;4.40;;
7029;SDS011;3556;53.500;10.176;2022-10-17T00:35:18;13.33;;;4.30;;
7029;SDS011;3556;53.500;10.176;2022-10-17T00:37:44;4.87;;;4.60;;
7029;SDS011;3556;53.500;10.176;2022-10-17T00:40:10;6.60;;;4.47;;
7029;SDS011;3556;53.500;10.176;2022-10-17T00:42:36;4.27;;;4.00;;
7029;SDS011;3556;53.500;10.176;2022-10-17T00:45:04;6.80;;;3.83;;
7029;SDS011;3556;53.500;10.176;2022-10-17T00:47:43;9.50;;;4.50;;
7029;SDS011;3556;53.500;10.176;2022-10-17T00:50:12;8.63;;;4.00;;
7029;SDS011;3556;53.500;10.176;2022-10-17T00:52:38;5.00;;;3.90;;
7029;SDS011;3556;53.500;10.176;2022-10-17T00:55:10;4.47;;;4.17;;
7029;SDS011;3556;53.500;10.176;2022-10-17T00:57:40;5.60;;;4.00;;
7029;SDS011;3556;53.500;10.176;2022-10-17T01:00:08;6.90;;;3.80;;
7029;SDS011;3556;53.500;10.176;2022-10-17T01:02:35;4.57;;;4.17;;
7029;SDS011;3556;53.500;10.176;2022-10-17T01:05:01;4.60;;;3.57;;
7029;SDS011;3556;53.500;10.176;2022-10-17T01:07:27;10.63;;;4.20;;
7029;SDS011;3556;53.500;10.176;2022-10-17T01:09:54;13.73;;;3.60;;
7029;SDS011;3556;53.500;10.176;2022-10-17T01:12:24;10.63;;;3.73;;
7029;SDS011;3556;53.500;10.176;2022-10-17T01:16:03;4.17;;;3.77;;
7029;SDS011;3556;53.500;10.176;2022-10-17T01:18:11;6.90;;;4.13;;
7029;SDS011;3556;53.500;10.176;2022-10-17T01:21:05;4.20;;;4.00;;
7029;SDS011;3556;53.500;10.176;2022-10-17T01:32:14;4.90;;;3.97;;
7029;SDS011;3556;53.500;10.176;2022-10-17T01:39:55;4.43;;;4.13;;
7029;SDS011;3556;53.500;10.176;2022-10-17T01:42:34;5.53;;;3.80;;
7029;SDS011;3556;53.500;10.176;2022-10-17T01:45:17;5.13;;;3.90;;
7029;SDS011;3556;53.500;10.176;2022-10-17T01:47:50;4.10;;;3.80;;
7029;SDS011;3556;53.500;10.176;2022-10-17T01:50:22;4.50;;;3.93;;
7029;SDS011;3556;53.500;10.176;2022-10-17T01:52:55;7.73;;;4.13;;
7029;SDS011;3556;53.500;10.176;2022-10-17T01:55:30;4.57;;;3.70;;
7029;SDS011;3556;53.500;10.176;2022-10-17T02:00:56;4.40;;;4.10;;
7029;SDS011;3556;53.500;10.176;2022-10-17T02:03:25;6.37;;;3.57;;
7029;SDS011;3556;53.500;10.176;2022-10-17T02:05:53;3.63;;;3.33;;
7029;SDS011;3556;53.500;10.176;2022-10-17T02:08:26;19.83;;;4.67;;
7029;SDS011;3556;53.500;10.176;2022-10-17T02:10:57;5.10;;;4.37;;
7029;SDS011;3556;53.500;10.176;2022-10-17T02:13:49;4.13;;;3.80;;
7029;SDS011;3556;53.500;10.176;2022-10-17T02:21:56;5.00;;;4.60;;
7029;SDS011;3556;53.500;10.176;2022-10-17T02:24:34;5.40;;;4.60;;
7029;SDS011;3556;53.500;10.176;2022-10-17T02:27:19;5.80;;;4.87;;
7029;SDS011;3556;53.500;10.176;2022-10-17T02:30:09;13.23;;;5.00;;
7029;SDS011;3556;53.500;10.176;2022-10-17T02:32:52;4.90;;;4.70;;
7029;SDS011;3556;53.500;10.176;2022-10-17T02:35:24;5.97;;;4.83;;
7029;SDS011;3556;53.500;10.176;2022-10-17T02:37:54;5.33;;;4.93;;
7029;SDS011;3556;53.500;10.176;2022-10-17T02:40:21;4.90;;;4.60;;
7029;SDS011;3556;53.500;10.176;2022-10-17T02:42:49;5.17;;;4.83;;
7029;SDS011;3556;53.500;10.176;2022-10-17T02:45:16;5.50;;;4.60;;
7029;SDS011;3556;53.500;10.176;2022-10-17T02:50:18;5.00;;;4.50;;
7029;SDS011;3556;53.500;10.176;2022-10-17T02:52:56;6.33;;;4.37;;
7029;SDS011;3556;53.500;10.176;2022-10-17T02:55:32;4.77;;;4.27;;
7029;SDS011;3556;53.500;10.176;2022-10-17T02:58:07;8.30;;;4.40;;
7029;SDS011;3556;53.500;10.176;2022-10-17T03:00:40;5.23;;;4.03;;
7029;SDS011;3556;53.500;10.176;2022-10-17T03:03:20;3.97;;;3.87;;
7029;SDS011;3556;53.500;10.176;2022-10-17T03:05:50;3.60;;;3.50;;
7029;SDS011;3556;53.500;10.176;2022-10-17T03:08:17;3.87;;;3.70;;
7029;SDS011;3556;53.500;10.176;2022-10-17T03:10:43;3.60;;;3.40;;
7029;SDS011;3556;53.500;10.176;2022-10-17T03:13:09;4.90;;;4.00;;
7029;SDS011;3556;53.500;10.176;2022-10-17T03:15:35;4.67;;;3.70;;
7029;SDS011;3556;53.500;10.176;2022-10-17T03:18:01;3.30;;;3.10;;
7029;SDS011;3556;53.500;10.176;2022-10-17T03:20:26;3.60;;;3.40;;
7029;SDS011;3556;53.500;10.176;2022-10-17T03:22:52;3.17;;;2.97;;
7029;SDS011;3556;53.500;10.176;2022-10-17T03:25:18;4.63;;;3.03;;
7029;SDS011;3556;53.500;10.176;2022-10-17T03:27:43;3.30;;;3.17;;
7029;SDS011;3556;53.500;10.176;2022-10-17T03:30:09;10.33;;;3.50;;
7029;SDS011;3556;53.500;10.176;2022-10-17T03:32:35;2.90;;;2.80;;
7029;SDS011;3556;53.500;10.176;2022-10-17T03:35:00;4.13;;;3.07;;
7029;SDS011;3556;53.500;10.176;2022-10-17T03:37:26;3.37;;;2.90;;
7029;SDS011;3556;53.500;10.176;2022-10-17T03:39:52;3.23;;;3.13;;
7029;SDS011;3556;53.500;10.176;2022-10-17T03:42:17;3.50;;;3.10;;
7029;SDS011;3556;53.500;10.176;2022-10-17T03:44:43;5.63;;;3.00;;
7029;SDS011;3556;53.500;10.176;2022-10-17T03:47:09;3.10;;;3.00;;
7029;SDS011;3556;53.500;10.176;2022-10-17T03:49:35;3.00;;;2.80;;
7029;SDS011;3556;53.500;10.176;2022-10-17T03:52:00;3.20;;;3.10;;
7029;SDS011;3556;53.500;10.176;2022-10-17T03:54:26;5.10;;;2.67;;
7029;SDS011;3556;53.500;10.176;2022-10-17T03:56:51;3.17;;;3.03;;
7029;SDS011;3556;53.500;10.176;2022-10-17T03:59:17;2.63;;;2.50;;
7029;SDS011;3556;53.500;10.176;2022-10-17T04:01:43;3.00;;;2.90;;
7029;SDS011;3556;53.500;10.176;2022-10-17T04:04:09;2.93;;;2.73;;
7029;SDS011;3556;53.500;10.176;2022-10-17T04:06:35;3.07;;;2.97;;
7029;SDS011;3556;53.500;10.176;2022-10-17T04:09:01;3.27;;;3.10;;
7029;SDS011;3556;53.500;10.176;2022-10-17T04:11:27;3.37;;;2.90;;
7029;SDS011;3556;53.500;10.176;2022-10-17T04:13:54;3.60;;;3.30;;
7029;SDS011;3556;53.500;10.176;2022-10-17T04:16:21;3.17;;;2.93;;
7029;SDS011;3556;53.500;10.176;2022-10-17T04:18:50;3.10;;;2.90;;
7029;SDS011;3556;53.500;10.176;2022-10-17T04:21:20;4.60;;;3.20;;
7029;SDS011;3556;53.500;10.176;2022-10-17T04:23:47;3.37;;;3.17;;
7029;SDS011;3556;53.500;10.176;2022-10-17T04:26:16;3.40;;;3.30;;
7029;SDS011;3556;53.500;10.176;2022-10-17T04:28:41;3.63;;;3.13;;
7029;SDS011;3556;53.500;10.176;2022-10-17T04:31:09;2.93;;;2.80;;
7029;SDS011;3556;53.500;10.176;2022-10-17T04:33:38;5.43;;;3.03;;
7029;SDS011;3556;53.500;10.176;2022-10-17T04:36:05;3.10;;;3.00;;
7029;SDS011;3556;53.500;10.176;2022-10-17T04:38:35;7.03;;;3.13;;
7029;SDS011;3556;53.500;10.176;2022-10-17T04:41:03;3.00;;;2.90;;
7029;SDS011;3556;53.500;10.176;2022-10-17T04:43:31;3.87;;;3.40;;
7029;SDS011;3556;53.500;10.176;2022-10-17T04:45:59;4.60;;;3.30;;
7029;SDS011;3556;53.500;10.176;2022-10-17T04:48:27;3.40;;;3.20;;
7029;SDS011;3556;53.500;10.176;2022-10-17T04:50:57;3.83;;;3.40;;
7029;SDS011;3556;53.500;10.176;2022-10-17T04:53:24;3.60;;;3.30;;
7029;SDS011;3556;53.500;10.176;2022-10-17T04:55:51;3.47;;;3.27;;
7029;SDS011;3556;53.500;10.176;2022-10-17T04:58:17;3.43;;;3.23;;
7029;SDS011;3556;53.500;10.176;2022-10-17T05:00:43;4.07;;;3.63;;
7029;SDS011;3556;53.500;10.176;2022-10-17T05:03:08;3.30;;;3.20;;
7029;SDS011;3556;53.500;10.176;2022-10-17T05:05:37;4.20;;;3.50;;
7029;SDS011;3556;53.500;10.176;2022-10-17T05:08:04;3.20;;;3.10;;
7029;SDS011;3556;53.500;10.176;2022-10-17T05:10:34;3.03;;;2.93;;
7029;SDS011;3556;53.500;10.176;2022-10-17T05:13:04;3.20;;;3.10;;
7029;SDS011;3556;53.500;10.176;2022-10-17T05:15:31;3.47;;;3.37;;
7029;SDS011;3556;53.500;10.176;2022-10-17T05:17:57;3.07;;;2.87;;
7029;SDS011;3556;53.500;10.176;2022-10-17T05:20:22;3.10;;;3.00;;
7029;SDS011;3556;53.500;10.176;2022-10-17T05:22:48;3.40;;;3.20;;
7029;SDS011;3556;53.500;10.176;2022-10-17T05:25:14;3.60;;;3.50;;
7029;SDS011;3556;53.500;10.176;2022-10-17T05:27:40;4.03;;;3.63;;
7029;SDS011;3556;53.500;10.176;2022-10-17T05:30:06;3.60;;;3.50;;
7029;SDS011;3556;53.500;10.176;2022-10-17T05:32:32;5.77;;;3.70;;
7029;SDS011;3556;53.500;10.176;2022-10-17T05:34:58;5.43;;;3.20;;
7029;SDS011;3556;53.500;10.176;2022-10-17T05:37:23;3.77;;;3.40;;
7029;SDS011;3556;53.500;10.176;2022-10-17T05:39:49;7.73;;;3.73;;
7029;SDS011;3556;53.500;10.176;2022-10-17T05:42:15;3.90;;;3.60;;
7029;SDS011;3556;53.500;10.176;2022-10-17T05:44:40;7.50;;;3.60;;
7029;SDS011;3556;53.500;10.176;2022-10-17T05:47:06;3.87;;;3.67;;
7029;SDS011;3556;53.500;10.176;2022-10-17T05:49:33;3.57;;;3.47;;
7029;SDS011;3556;53.500;10.176;2022-10-17T05:51:59;3.57;;;3.23;;
7029;SDS011;3556;53.500;10.176;2022-10-17T05:54:25;4.60;;;3.50;;
7029;SDS011;3556;53.500;10.176;2022-10-17T05:56:51;3.53;;;3.27;;
7029;SDS011;3556;53.500;10.176;2022-10-17T05:59:17;3.27;;;3.07;;
7029;SDS011;3556;53.500;10.176;2022-10-17T06:01:43;4.33;;;3.87;;
7029;SDS011;3556;53.500;10.176;2022-10-17T06:04:08;4.73;;;3.80;;
7029;SDS011;3556;53.500;10.176;2022-10-17T06:06:37;3.63;;;3.43;;
7029;SDS011;3556;53.500;10.176;2022-10-17T06:09:04;3.90;;;3.70;;
7029;SDS011;3556;53.500;10.176;2022-10-17T06:11:30;3.90;;;3.80;;
7029;SDS011;3556;53.500;10.176;2022-10-17T06:13:56;3.77;;;3.57;;
7029;SDS011;3556;53.500;10.176;2022-10-17T06:16:21;4.90;;;3.20;;
7029;SDS011;3556;53.500;10.176;2022-10-17T06:18:47;4.50;;;3.70;;
7029;SDS011;3556;53.500;10.176;2022-10-17T06:21:14;5.20;;;3.50;;
7029;SDS011;3556;53.500;10.176;2022-10-17T06:23:42;4.90;;;3.60;;
7029;SDS011;3556;53.500;10.176;2022-10-17T06:26:08;4.07;;;3.97;;
7029;SDS011;3556;53.500;10.176;2022-10-17T06:28:34;4.10;;;3.80;;
7029;SDS011;3556;53.500;10.176;2022-10-17T06:31:07;4.03;;;3.83;;
7029;SDS011;3556;53.500;10.176;2022-10-17T06:33:34;4.40;;;4.00;;
7029;SDS011;3556;53.500;10.176;2022-10-17T06:36:00;3.80;;;3.70;;
7029;SDS011;3556;53.500;10.176;2022-10-17T06:38:26;5.83;;;3.83;;
7029;SDS011;3556;53.500;10.176;2022-10-17T06:40:52;4.10;;;4.00;;
7029;SDS011;3556;53.500;10.176;2022-10-17T06:43:18;10.53;;;4.50;;
7029;SDS011;3556;53.500;10.176;2022-10-17T06:45:45;4.10;;;3.80;;
7029;SDS011;3556;53.500;10.176;2022-10-17T06:48:11;4.47;;;4.27;;
7029;SDS011;3556;53.500;10.176;2022-10-17T06:50:37;5.20;;;4.07;;
7029;SDS011;3556;53.500;10.176;2022-10-17T06:53:03;4.07;;;3.97;;
7029;SDS011;3556;53.500;10.176;2022-10-17T06:55:29;4.17;;;3.97;;
7029;SDS011;3556;53.500;10.176;2022-10-17T06:57:56;4.40;;;4.10;;
7029;SDS011;3556;53.500;10.176;2022-10-17T07:00:21;4.30;;;3.90;;
7029;SDS011;3556;53.500;10.176;2022-10-17T07:02:47;4.40;;;4.10;;
7029;SDS011;3556;53.500;10.176;2022-10-17T07:05:13;5.10;;;4.40;;
7029;SDS011;3556;53.500;10.176;2022-10-17T07:07:39;4.30;;;3.90;;
7029;SDS011;3556;53.500;10.176;2022-10-17T07:10:05;4.40;;;4.30;;
7029;SDS011;3556;53.500;10.176;2022-10-17T07:12:33;8.67;;;4.60;;
7029;SDS011;3556;53.500;10.176;2022-10-17T07:14:59;4.87;;;3.87;;
7029;SDS011;3556;53.500;10.176;2022-10-17T07:17:25;4.73;;;4.17;;
7029;SDS011;3556;53.500;10.176;2022-10-17T07:19:51;3.60;;;3.50;;
7029;SDS011;3556;53.500;10.176;2022-10-17T07:22:16;6.50;;;4.20;;
7029;SDS011;3556;53.500;10.176;2022-10-17T07:24:42;4.33;;;4.20;;
7029;SDS011;3556;53.500;10.176;2022-10-17T07:27:08;4.67;;;4.37;;
7029;SDS011;3556;53.500;10.176;2022-10-17T07:29:33;3.90;;;3.80;;
7029;SDS011;3556;53.500;10.176;2022-10-17T07:31:59;4.60;;;4.20;;
7029;SDS011;3556;53.500;10.176;2022-10-17T07:34:24;9.40;;;4.80;;
7029;SDS011;3556;53.500;10.176;2022-10-17T07:36:55;4.30;;;4.10;;
7029;SDS011;3556;53.500;10.176;2022-10-17T07:39:21;4.60;;;4.50;;
7029;SDS011;3556;53.500;10.176;2022-10-17T07:41:47;4.70;;;4.27;;
7029;SDS011;3556;53.500;10.176;2022-10-17T07:44:14;4.00;;;3.90;;
7029;SDS011;3556;53.500;10.176;2022-10-17T07:46:40;5.53;;;4.10;;
7029;SDS011;3556;53.500;10.176;2022-10-17T07:49:06;4.07;;;3.87;;
7029;SDS011;3556;53.500;10.176;2022-10-17T07:51:31;4.37;;;3.97;;
7029;SDS011;3556;53.500;10.176;2022-10-17T07:53:57;10.17;;;4.50;;
7029;SDS011;3556;53.500;10.176;2022-10-17T07:56:23;4.57;;;4.27;;
7029;SDS011;3556;53.500;10.176;2022-10-17T07:58:49;4.60;;;4.20;;
7029;SDS011;3556;53.500;10.176;2022-10-17T08:01:15;4.30;;;4.00;;
7029;SDS011;3556;53.500;10.176;2022-10-17T08:03:45;4.00;;;3.90;;
7029;SDS011;3556;53.500;10.176;2022-10-17T08:06:12;10.77;;;4.03;;
7029;SDS011;3556;53.500;10.176;2022-10-17T08:08:38;4.17;;;3.80;;
7029;SDS011;3556;53.500;10.176;2022-10-17T08:11:05;5.90;;;4.50;;
7029;SDS011;3556;53.500;10.176;2022-10-17T08:13:33;4.87;;;3.97;;
7029;SDS011;3556;53.500;10.176;2022-10-17T08:16:00;3.97;;;3.77;;
7029;SDS011;3556;53.500;10.176;2022-10-17T08:18:26;4.23;;;3.93;;
7029;SDS011;3556;53.500;10.176;2022-10-17T08:20:52;4.30;;;4.10;;
7029;SDS011;3556;53.500;10.176;2022-10-17T08:23:18;5.93;;;3.90;;
7029;SDS011;3556;53.500;10.176;2022-10-17T08:25:44;5.70;;;4.17;;
7029;SDS011;3556;53.500;10.176;2022-10-17T08:28:09;4.20;;;3.97;;
7029;SDS011;3556;53.500;10.176;2022-10-17T08:30:35;9.90;;;3.73;;
7029;SDS011;3556;53.500;10.176;2022-10-17T08:33:00;10.73;;;4.13;;
7029;SDS011;3556;53.500;10.176;2022-10-17T08:35:26;3.63;;;3.43;;
7029;SDS011;3556;53.500;10.176;2022-10-17T08:37:52;3.80;;;3.60;;
7029;SDS011;3556;53.500;10.176;2022-10-17T08:40:18;3.80;;;3.60;;
7029;SDS011;3556;53.500;10.176;2022-10-17T08:45:32;4.07;;;3.90;;
7029;SDS011;3556;53.500;10.176;2022-10-17T08:48:04;3.97;;;3.67;;
7029;SDS011;3556;53.500;10.176;2022-10-17T08:50:42;4.10;;;3.80;;
7029;SDS011;3556;53.500;10.176;2022-10-17T08:53:19;4.30;;;3.80;;
7029;SDS011;3556;53.500;10.176;2022-10-17T08:56:20;3.93;;;3.70;;
7029;SDS011;3556;53.500;10.176;2022-10-17T08:58:50;7.80;;;3.30;;
7029;SDS011;3556;53.500;10.176;2022-10-17T09:01:36;7.60;;;3.67;;
7029;SDS011;3556;53.500;10.176;2022-10-17T09:06:38;4.00;;;3.80;;
7029;SDS011;3556;53.500;10.176;2022-10-17T09:12:08;6.20;;;3.30;;
7029;SDS011;3556;53.500;10.176;2022-10-17T09:17:23;3.83;;;3.53;;
7029;SDS011;3556;53.500;10.176;2022-10-17T09:20:17;9.10;;;4.10;;
7029;SDS011;3556;53.500;10.176;2022-10-17T09:22:55;3.67;;;3.47;;
7029;SDS011;3556;53.500;10.176;2022-10-17T09:25:43;3.67;;;3.30;;
7029;SDS011;3556;53.500;10.176;2022-10-17T09:28:13;10.13;;;3.07;;
7029;SDS011;3556;53.500;10.176;2022-10-17T09:30:45;4.77;;;3.80;;
7029;SDS011;3556;53.500;10.176;2022-10-17T09:33:15;5.73;;;3.23;;
7029;SDS011;3556;53.500;10.176;2022-10-17T09:35:43;6.00;;;3.03;;
7029;SDS011;3556;53.500;10.176;2022-10-17T09:38:16;3.23;;;3.13;;
7029;SDS011;3556;53.500;10.176;2022-10-17T09:40:44;3.20;;;3.00;;
7029;SDS011;3556;53.500;10.176;2022-10-17T09:43:17;9.77;;;3.20;;
7029;SDS011;3556;53.500;10.176;2022-10-17T09:45:58;3.40;;;3.20;;
7029;SDS011;3556;53.500;10.176;2022-10-17T09:48:45;6.00;;;3.23;;
7029;SDS011;3556;53.500;10.176;2022-10-17T09:51:19;4.23;;;3.10;;
7029;SDS011;3556;53.500;10.176;2022-10-17T09:53:48;3.40;;;3.30;;
7029;SDS011;3556;53.500;10.176;2022-10-17T09:56:18;5.83;;;3.10;;
7029;SDS011;3556;53.500;10.176;2022-10-17T10:01:23;9.20;;;3.17;;
7029;SDS011;3556;53.500;10.176;2022-10-17T10:04:08;3.83;;;3.20;;
7029;SDS011;3556;53.500;10.176;2022-10-17T10:06:35;3.27;;;2.80;;
7029;SDS011;3556;53.500;10.176;2022-10-17T10:09:02;3.00;;;2.77;;
7029;SDS011;3556;53.500;10.176;2022-10-17T10:14:28;9.77;;;3.60;;
7029;SDS011;3556;53.500;10.176;2022-10-17T10:16:54;3.53;;;3.30;;
7029;SDS011;3556;53.500;10.176;2022-10-17T10:19:25;3.47;;;3.27;;
7029;SDS011;3556;53.500;10.176;2022-10-17T10:21:56;7.70;;;3.40;;
7029;SDS011;3556;53.500;10.176;2022-10-17T10:24:26;4.13;;;3.73;;
7029;SDS011;3556;53.500;10.176;2022-10-17T10:26:53;4.40;;;3.57;;
7029;SDS011;3556;53.500;10.176;2022-10-17T10:29:26;4.00;;;3.70;;
7029;SDS011;3556;53.500;10.176;2022-10-17T10:31:58;4.13;;;3.60;;
7029;SDS011;3556;53.500;10.176;2022-10-17T10:34:56;4.50;;;3.30;;
7029;SDS011;3556;53.500;10.176;2022-10-17T10:37:28;10.07;;;3.90;;
7029;SDS011;3556;53.500;10.176;2022-10-17T10:40:00;4.20;;;3.90;;
7029;SDS011;3556;53.500;10.176;2022-10-17T10:42:30;3.70;;;3.40;;
7029;SDS011;3556;53.500;10.176;2022-10-17T10:44:58;3.30;;;3.10;;
7029;SDS011;3556;53.500;10.176;2022-10-17T10:50:29;4.13;;;3.40;;
7029;SDS011;3556;53.500;10.176;2022-10-17T11:04:27;3.73;;;3.47;;
7029;SDS011;3556;53.500;10.176;2022-10-17T11:07:03;4.03;;;3.57;;
7029;SDS011;3556;53.500;10.176;2022-10-17T11:12:26;10.10;;;3.97;;
7029;SDS011;3556;53.500;10.176;2022-10-17T11:17:59;4.20;;;3.50;;
7029;SDS011;3556;53.500;10.176;2022-10-17T11:20:49;4.23;;;3.57;;
7029;SDS011;3556;53.500;10.176;2022-10-17T11:26:10;8.57;;;3.90;;
7029;SDS011;3556;53.500;10.176;2022-10-17T11:28:58;3.87;;;3.60;;
7029;SDS011;3556;53.500;10.176;2022-10-17T11:31:32;14.93;;;3.97;;
7029;SDS011;3556;53.500;10.176;2022-10-17T11:34:09;3.87;;;3.57;;
7029;SDS011;3556;53.500;10.176;2022-10-17T11:36:43;5.70;;;3.60;;
7029;SDS011;3556;53.500;10.176;2022-10-17T11:44:33;3.93;;;3.57;;
7029;SDS011;3556;53.500;10.176;2022-10-17T11:47:03;4.80;;;3.70;;
7029;SDS011;3556;53.500;10.176;2022-10-17T11:49:58;3.87;;;3.53;;
7029;SDS011;3556;53.500;10.176;2022-10-17T11:52:42;4.00;;;3.70;;
7029;SDS011;3556;53.500;10.176;2022-10-17T11:55:14;3.93;;;3.60;;
7029;SDS011;3556;53.500;10.176;2022-10-17T11:57:46;4.10;;;3.50;;
7029;SDS011;3556;53.500;10.176;2022-10-17T12:02:48;4.40;;;4.10;;
7029;SDS011;3556;53.500;10.176;2022-10-17T12:05:24;4.47;;;4.27;;
7029;SDS011;3556;53.500;10.176;2022-10-17T12:11:12;4.07;;;3.60;;
7029;SDS011;3556;53.500;10.176;2022-10-17T12:18:44;4.43;;;4.07;;
7029;SDS011;3556;53.500;10.176;2022-10-17T12:24:23;5.70;;;4.63;;
7029;SDS011;3556;53.500;10.176;2022-10-17T12:30:17;5.40;;;4.83;;
7029;SDS011;3556;53.500;10.176;2022-10-17T12:32:53;4.93;;;4.10;;
7029;SDS011;3556;53.500;10.176;2022-10-17T12:35:38;8.80;;;4.20;;
7029;SDS011;3556;53.500;10.176;2022-10-17T12:45:49;6.80;;;4.40;;
7029;SDS011;3556;53.500;10.176;2022-10-17T12:51:13;8.90;;;4.90;;
7029;SDS011;3556;53.500;10.176;2022-10-17T12:56:20;7.80;;;4.50;;
7029;SDS011;3556;53.500;10.176;2022-10-17T12:58:54;4.47;;;4.27;;
7029;SDS011;3556;53.500;10.176;2022-10-17T13:01:29;6.73;;;4.37;;
7029;SDS011;3556;53.500;10.176;2022-10-17T13:03:57;4.83;;;4.43;;
7029;SDS011;3556;53.500;10.176;2022-10-17T13:06:30;4.63;;;4.30;;
7029;SDS011;3556;53.500;10.176;2022-10-17T13:09:06;5.03;;;4.80;;
7029;SDS011;3556;53.500;10.176;2022-10-17T13:11:39;7.03;;;4.93;;
7029;SDS011;3556;53.500;10.176;2022-10-17T13:14:10;5.17;;;4.97;;
7029;SDS011;3556;53.500;10.176;2022-10-17T13:16:49;4.90;;;4.70;;
7029;SDS011;3556;53.500;10.176;2022-10-17T13:19:19;5.10;;;4.70;;
7029;SDS011;3556;53.500;10.176;2022-10-17T13:21:50;9.50;;;5.13;;
7029;SDS011;3556;53.500;10.176;2022-10-17T13:24:30;15.70;;;5.40;;
7029;SDS011;3556;53.500;10.176;2022-10-17T13:26:57;9.87;;;5.53;;
7029;SDS011;3556;53.500;10.176;2022-10-17T13:29:24;17.10;;;7.43;;
7029;SDS011;3556;53.500;10.176;2022-10-17T13:31:53;10.43;;;6.60;;
7029;SDS011;3556;53.500;10.176;2022-10-17T13:34:24;7.50;;;6.67;;
7029;SDS011;3556;53.500;10.176;2022-10-17T13:36:53;6.40;;;6.10;;
7029;SDS011;3556;53.500;10.176;2022-10-17T13:39:25;6.57;;;5.83;;
7029;SDS011;3556;53.500;10.176;2022-10-17T13:41:54;7.53;;;6.80;;
7029;SDS011;3556;53.500;10.176;2022-10-17T13:44:26;8.30;;;7.53;;
7029;SDS011;3556;53.500;10.176;2022-10-17T13:46:56;7.13;;;6.60;;
7029;SDS011;3556;53.500;10.176;2022-10-17T13:51:58;11.47;;;8.17;;
7029;SDS011;3556;53.500;10.176;2022-10-17T13:54:37;17.97;;;7.40;;
7029;SDS011;3556;53.500;10.176;2022-10-17T14:00:05;16.30;;;7.30;;
7029;SDS011;3556;53.500;10.176;2022-10-17T14:02:39;7.27;;;6.87;;
7029;SDS011;3556;53.500;10.176;2022-10-17T14:07:39;15.33;;;8.60;;
7029;SDS011;3556;53.500;10.176;2022-10-17T14:12:51;11.70;;;9.03;;
7029;SDS011;3556;53.500;10.176;2022-10-17T14:15:17;9.50;;;8.80;;
7029;SDS011;3556;53.500;10.176;2022-10-17T14:17:52;11.57;;;7.80;;
7029;SDS011;3556;53.500;10.176;2022-10-17T14:20:20;13.97;;;11.80;;
7029;SDS011;3556;53.500;10.176;2022-10-17T14:22:48;15.03;;;10.60;;
7029;SDS011;3556;53.500;10.176;2022-10-17T14:25:30;28.73;;;18.97;;
7029;SDS011;3556;53.500;10.176;2022-10-17T14:28:01;33.20;;;22.33;;
7029;SDS011;3556;53.500;10.176;2022-10-17T14:33:13;19.80;;;15.20;;
7029;SDS011;3556;53.500;10.176;2022-10-17T14:35:53;11.53;;;10.37;;
7029;SDS011;3556;53.500;10.176;2022-10-17T14:38:20;13.70;;;10.97;;
7029;SDS011;3556;53.500;10.176;2022-10-17T14:40:50;14.90;;;11.27;;
7029;SDS011;3556;53.500;10.176;2022-10-17T14:43:20;26.70;;;19.30;;
7029;SDS011;3556;53.500;10.176;2022-10-17T14:45:48;12.87;;;11.57;;
7029;SDS011;3556;53.500;10.176;2022-10-17T14:48:15;13.60;;;11.93;;
7029;SDS011;3556;53.500;10.176;2022-10-17T14:56:40;20.87;;;16.90;;
7029;SDS011;3556;53.500;10.176;2022-10-17T14:59:06;15.33;;;13.57;;
7029;SDS011;3556;53.500;10.176;2022-10-17T15:01:34;19.20;;;15.10;;
7029;SDS011;3556;53.500;10.176;2022-10-17T15:03:59;11.57;;;10.30;;
7029;SDS011;3556;53.500;10.176;2022-10-17T15:06:27;11.07;;;10.23;;
7029;SDS011;3556;53.500;10.176;2022-10-17T15:08:54;28.13;;;21.13;;
7029;SDS011;3556;53.500;10.176;2022-10-17T15:11:20;13.00;;;11.67;;
7029;SDS011;3556;53.500;10.176;2022-10-17T15:13:46;12.57;;;11.00;;
7029;SDS011;3556;53.500;10.176;2022-10-17T15:16:19;11.70;;;10.00;;
7029;SDS011;3556;53.500;10.176;2022-10-17T15:18:46;12.83;;;11.03;;
7029;SDS011;3556;53.500;10.176;2022-10-17T15:21:12;12.63;;;11.50;;
7029;SDS011;3556;53.500;10.176;2022-10-17T15:23:39;15.97;;;14.67;;
7029;SDS011;3556;53.500;10.176;2022-10-17T15:26:25;12.73;;;11.60;;
7029;SDS011;3556;53.500;10.176;2022-10-17T15:28:53;17.33;;;12.40;;
7029;SDS011;3556;53.500;10.176;2022-10-17T15:31:20;17.87;;;12.60;;
7029;SDS011;3556;53.500;10.176;2022-10-17T15:33:47;12.70;;;11.57;;
7029;SDS011;3556;53.500;10.176;2022-10-17T15:36:17;14.03;;;12.63;;
7029;SDS011;3556;53.500;10.176;2022-10-17T15:39:06;15.43;;;13.17;;
7029;SDS011;3556;53.500;10.176;2022-10-17T15:41:33;14.07;;;12.67;;
7029;SDS011;3556;53.500;10.176;2022-10-17T15:43:59;14.87;;;12.60;;
7029;SDS011;3556;53.500;10.176;2022-10-17T15:46:26;15.53;;;13.00;;
7029;SDS011;3556;53.500;10.176;2022-10-17T15:48:53;15.70;;;12.40;;
7029;SDS011;3556;53.500;10.176;2022-10-17T15:51:20;13.47;;;12.37;;
7029;SDS011;3556;53.500;10.176;2022-10-17T15:53:46;16.20;;;13.37;;
7029;SDS011;3556;53.500;10.176;2022-10-17T15:56:28;13.50;;;12.10;;
7029;SDS011;3556;53.500;10.176;2022-10-17T15:59:02;15.43;;;12.77;;
7029;SDS011;3556;53.500;10.176;2022-10-17T16:01:42;12.57;;;11.37;;
7029;SDS011;3556;53.500;10.176;2022-10-17T16:04:10;12.10;;;11.00;;
7029;SDS011;3556;53.500;10.176;2022-10-17T16:06:42;13.00;;;11.87;;
7029;SDS011;3556;53.500;10.176;2022-10-17T16:09:08;11.47;;;10.63;;
7029;SDS011;3556;53.500;10.176;2022-10-17T16:11:35;11.57;;;10.47;;
7029;SDS011;3556;53.500;10.176;2022-10-17T16:14:04;12.10;;;10.83;;
7029;SDS011;3556;53.500;10.176;2022-10-17T16:16:32;10.40;;;9.77;;
7029;SDS011;3556;53.500;10.176;2022-10-17T16:18:58;10.03;;;9.33;;
7029;SDS011;3556;53.500;10.176;2022-10-17T16:21:24;10.73;;;9.63;;
7029;SDS011;3556;53.500;10.176;2022-10-17T16:23:52;10.17;;;9.27;;
7029;SDS011;3556;53.500;10.176;2022-10-17T16:26:17;10.23;;;8.43;;
7029;SDS011;3556;53.500;10.176;2022-10-17T16:28:43;9.90;;;9.00;;
7029;SDS011;3556;53.500;10.176;2022-10-17T16:31:18;21.40;;;9.40;;
7029;SDS011;3556;53.500;10.176;2022-10-17T16:33:49;10.57;;;9.50;;
7029;SDS011;3556;53.500;10.176;2022-10-17T16:36:16;13.43;;;12.20;;
7029;SDS011;3556;53.500;10.176;2022-10-17T16:38:41;9.80;;;9.20;;
7029;SDS011;3556;53.500;10.176;2022-10-17T16:41:14;11.70;;;10.43;;
7029;SDS011;3556;53.500;10.176;2022-10-17T16:43:45;11.00;;;9.87;;
7029;SDS011;3556;53.500;10.176;2022-10-17T16:46:15;11.50;;;10.43;;
7029;SDS011;3556;53.500;10.176;2022-10-17T16:48:42;15.40;;;9.90;;
7029;SDS011;3556;53.500;10.176;2022-10-17T16:51:09;18.93;;;10.50;;
7029;SDS011;3556;53.500;10.176;2022-10-17T16:53:35;18.00;;;15.57;;
7029;SDS011;3556;53.500;10.176;2022-10-17T16:56:08;11.50;;;10.40;;
7029;SDS011;3556;53.500;10.176;2022-10-17T16:58:35;15.70;;;10.97;;
7029;SDS011;3556;53.500;10.176;2022-10-17T17:01:01;12.23;;;10.73;;
7029;SDS011;3556;53.500;10.176;2022-10-17T17:03:29;11.67;;;10.77;;
7029;SDS011;3556;53.500;10.176;2022-10-17T17:05:58;11.63;;;10.73;;
7029;SDS011;3556;53.500;10.176;2022-10-17T17:08:23;11.87;;;10.80;;
7029;SDS011;3556;53.500;10.176;2022-10-17T17:10:49;10.63;;;9.77;;